Time;durP1;ratioP1;P1;durP2;ratioP2;P2;SDS_P1;SDS_P2;PMS_P1;PMS_P2;Temp;Humidity;BMP_temperature;BMP_pressure;BME280_temperature;BME280_humidity;BME280_pressure;Samples;Min_cycle;Max_cycle;Signal;HPM_P1;HPM_P2
2024/02/15 00:02:18;;;;;;;12.70;6.10;;;12.70;99.90;;;;;;4960479;28;20482;-72
2024/02/15 00:04:44;;;;;;;10.00;4.37;;;12.70;99.90;;;;;;4950285;28;20459;-71
2024/02/15 00:07:11;;;;;;;10.20;4.60;;;12.80;99.90;;;;;;4950234;28;20492;-71
2024/02/15 00:09:39;;;;;;;15.23;5.20;;;12.80;99.90;;;;;;4950163;28;20473;-72
2024/02/15 00:12:07;;;;;;;8.33;4.53;;;12.80;99.90;;;;;;4953962;28;20466;-72
2024/02/15 00:14:38;;;;;;;6.13;4.50;;;12.80;99.90;;;;;;4952149;28;20464;-71
2024/02/15 00:17:05;;;;;;;12.23;4.37;;;12.80;99.90;;;;;;4952733;28;20489;-72
2024/02/15 00:19:32;;;;;;;5.73;4.00;;;12.80;99.90;;;;;;4952368;28;20571;-71
2024/02/15 00:21:58;;;;;;;6.97;4.83;;;12.70;99.90;;;;;;4952729;28;20506;-72
2024/02/15 00:24:25;;;;;;;8.23;4.77;;;12.80;99.90;;;;;;4952470;28;20459;-72
2024/02/15 00:26:53;;;;;;;7.40;4.30;;;12.80;99.90;;;;;;4950882;28;20503;-72
2024/02/15 00:29:20;;;;;;;8.83;5.77;;;12.80;99.90;;;;;;4949744;28;20840;-72
2024/02/15 00:31:48;;;;;;;6.83;5.27;;;12.80;99.90;;;;;;4956952;28;20843;-72
2024/02/15 00:34:16;;;;;;;7.53;4.77;;;12.80;99.90;;;;;;4957039;28;20489;-72
2024/02/15 00:36:43;;;;;;;8.73;4.23;;;12.90;99.90;;;;;;4951044;28;20491;-73
2024/02/15 00:39:11;;;;;;;11.03;5.27;;;12.90;99.90;;;;;;4952124;28;20580;-73
2024/02/15 00:41:41;;;;;;;10.33;5.30;;;12.90;99.90;;;;;;4948342;28;20463;-73
2024/02/15 00:44:10;;;;;;;12.03;5.87;;;13.00;99.90;;;;;;4952094;28;20463;-71
2024/02/15 00:46:41;;;;;;;9.60;6.60;;;12.90;99.90;;;;;;4957205;28;20821;-72
2024/02/15 00:49:08;;;;;;;9.40;5.57;;;12.90;99.90;;;;;;4958454;28;20469;-72
2024/02/15 00:51:35;;;;;;;8.40;5.77;;;12.90;99.90;;;;;;4954026;28;20455;-72
2024/02/15 00:54:02;;;;;;;13.50;6.20;;;12.90;99.90;;;;;;4960248;28;20969;-72
2024/02/15 00:56:29;;;;;;;14.03;5.00;;;12.90;99.90;;;;;;4960740;28;20467;-72
2024/02/15 00:58:56;;;;;;;12.33;7.63;;;12.90;99.90;;;;;;4962151;28;20919;-72
2024/02/15 01:01:25;;;;;;;7.57;4.50;;;12.90;99.90;;;;;;4959546;28;20541;-71
2024/02/15 01:03:51;;;;;;;12.20;6.40;;;12.90;99.90;;;;;;4956562;28;20467;-74
2024/02/15 01:06:18;;;;;;;12.43;6.10;;;12.90;99.90;;;;;;4942736;28;21298;-72
2024/02/15 01:08:45;;;;;;;12.13;6.60;;;12.90;99.90;;;;;;4958275;28;20561;-72
2024/02/15 01:11:13;;;;;;;8.80;5.20;;;12.80;99.90;;;;;;4954144;28;20926;-72
2024/02/15 01:13:40;;;;;;;6.33;4.90;;;12.90;99.90;;;;;;4960845;28;20970;-72
2024/02/15 01:16:08;;;;;;;9.00;5.97;;;12.90;99.90;;;;;;4954647;28;21102;-72
2024/02/15 01:18:38;;;;;;;5.33;3.90;;;12.70;99.90;;;;;;4956523;28;20487;-72
2024/02/15 01:21:06;;;;;;;6.90;5.70;;;12.70;99.90;;;;;;4961225;28;20490;-72
2024/02/15 01:23:32;;;;;;;10.30;4.93;;;12.80;99.90;;;;;;4958490;28;20937;-71
2024/02/15 01:26:01;;;;;;;8.67;5.80;;;12.90;99.90;;;;;;4957026;28;20467;-71
2024/02/15 01:28:29;;;;;;;10.10;5.43;;;12.90;99.90;;;;;;4951795;28;20781;-72
2024/02/15 01:30:56;;;;;;;11.20;6.07;;;12.80;99.90;;;;;;4958401;28;20535;-72
2024/02/15 01:33:23;;;;;;;9.73;6.47;;;12.80;99.90;;;;;;4957980;28;20494;-72
2024/02/15 01:35:51;;;;;;;10.90;4.70;;;12.90;99.90;;;;;;4956669;28;20460;-72
2024/02/15 01:38:18;;;;;;;6.83;4.97;;;13.00;99.90;;;;;;4951235;28;20570;-71
2024/02/15 01:40:44;;;;;;;7.37;5.03;;;12.90;99.90;;;;;;4944432;28;20818;-71
2024/02/15 01:43:11;;;;;;;13.40;6.07;;;13.00;99.90;;;;;;4940583;28;20486;-72
2024/02/15 01:45:38;;;;;;;7.50;5.40;;;13.00;99.90;;;;;;4945599;28;20559;-72
2024/02/15 01:48:06;;;;;;;7.43;5.83;;;13.00;99.90;;;;;;4946598;28;21017;-72
2024/02/15 01:50:34;;;;;;;12.40;5.40;;;13.00;99.90;;;;;;4939077;28;20459;-72
2024/02/15 01:53:06;;;;;;;13.23;5.97;;;12.90;99.90;;;;;;4944505;28;20472;-72
2024/02/15 01:55:33;;;;;;;14.43;6.03;;;13.00;99.90;;;;;;4938427;28;20467;-71
2024/02/15 01:58:01;;;;;;;5.70;4.07;;;13.00;99.90;;;;;;4947705;28;20493;-72
2024/02/15 02:00:28;;;;;;;8.50;4.80;;;13.00;99.90;;;;;;4939239;28;20471;-72
2024/02/15 02:02:59;;;;;;;8.83;4.33;;;13.00;99.90;;;;;;4948783;28;20970;-71
2024/02/15 02:05:27;;;;;;;10.37;5.53;;;12.90;99.90;;;;;;4946890;28;20463;-71
2024/02/15 02:07:57;;;;;;;7.70;5.07;;;12.90;99.90;;;;;;4938716;28;20487;-71
2024/02/15 02:10:27;;;;;;;11.27;4.87;;;13.00;99.90;;;;;;4951018;28;20467;-72
2024/02/15 02:12:54;;;;;;;12.03;5.33;;;13.10;99.90;;;;;;4956642;28;20814;-72
2024/02/15 02:15:21;;;;;;;12.83;4.93;;;13.00;99.90;;;;;;4951552;28;20470;-71
2024/02/15 02:17:50;;;;;;;11.83;5.00;;;13.20;99.90;;;;;;4951952;28;20863;-71
2024/02/15 02:20:17;;;;;;;12.60;5.47;;;13.10;99.90;;;;;;4959093;28;20483;-72
2024/02/15 02:22:47;;;;;;;9.23;4.70;;;13.10;99.90;;;;;;4953666;28;20464;-71
2024/02/15 02:25:17;;;;;;;7.90;5.70;;;13.20;99.90;;;;;;4954081;28;21100;-72
2024/02/15 02:27:44;;;;;;;10.90;5.90;;;13.20;99.90;;;;;;4949198;28;20484;-71
2024/02/15 02:30:17;;;;;;;8.27;6.10;;;13.20;99.90;;;;;;4955753;28;20474;-72
2024/02/15 02:32:44;;;;;;;6.70;5.37;;;13.10;99.90;;;;;;4953982;28;20471;-71
2024/02/15 02:35:12;;;;;;;5.97;4.83;;;13.20;99.90;;;;;;4953462;28;20826;-72
2024/02/15 02:37:39;;;;;;;12.73;4.43;;;13.10;99.90;;;;;;4953060;28;20575;-70
2024/02/15 02:40:08;;;;;;;5.40;3.90;;;13.20;99.90;;;;;;4953563;28;20941;-72
2024/02/15 02:42:36;;;;;;;5.50;4.17;;;13.10;99.90;;;;;;4951389;28;21141;-71
2024/02/15 02:45:04;;;;;;;6.60;4.17;;;13.20;99.90;;;;;;4951035;28;20518;-71
2024/02/15 02:47:31;;;;;;;6.43;4.80;;;13.20;99.90;;;;;;4943596;28;20498;-71
2024/02/15 02:49:58;;;;;;;8.10;4.33;;;13.30;99.90;;;;;;4962580;28;20471;-71
2024/02/15 02:52:25;;;;;;;6.23;4.23;;;13.20;99.90;;;;;;4960272;28;20478;-71
2024/02/15 02:54:51;;;;;;;9.10;4.90;;;13.30;99.90;;;;;;4960102;28;20482;-71
2024/02/15 02:57:18;;;;;;;11.57;4.20;;;13.30;99.90;;;;;;4954517;28;20490;-72
2024/02/15 02:59:47;;;;;;;4.70;3.40;;;13.20;99.90;;;;;;4953259;28;20475;-72
2024/02/15 03:02:14;;;;;;;4.50;4.03;;;13.20;99.90;;;;;;4952710;28;20473;-71
2024/02/15 03:04:40;;;;;;;7.03;4.10;;;13.30;99.90;;;;;;4954182;28;20471;-72
2024/02/15 03:07:07;;;;;;;9.00;4.27;;;13.30;99.90;;;;;;4951577;28;20505;-70
2024/02/15 03:09:34;;;;;;;18.90;5.23;;;13.30;99.90;;;;;;4951599;28;20470;-71
2024/02/15 03:12:01;;;;;;;5.33;3.27;;;13.40;99.90;;;;;;4956250;28;20554;-70
2024/02/15 03:14:30;;;;;;;8.43;4.90;;;13.40;99.90;;;;;;4948104;28;20459;-71
2024/02/15 03:16:58;;;;;;;4.47;3.90;;;13.40;99.90;;;;;;4954813;28;20490;-70
2024/02/15 03:19:26;;;;;;;9.37;4.50;;;13.40;99.90;;;;;;4953126;28;20459;-71
2024/02/15 03:21:53;;;;;;;5.90;3.20;;;13.30;99.90;;;;;;4951427;28;20494;-71
2024/02/15 03:24:20;;;;;;;9.87;3.97;;;13.40;99.90;;;;;;4950137;28;20478;-70
2024/02/15 03:26:51;;;;;;;5.53;4.23;;;13.40;99.90;;;;;;4954847;28;20483;-70
2024/02/15 03:29:20;;;;;;;5.33;4.23;;;13.20;99.90;;;;;;4947911;28;20718;-70
2024/02/15 03:31:47;;;;;;;7.30;4.07;;;13.20;99.90;;;;;;4950554;28;20488;-70
2024/02/15 03:34:15;;;;;;;4.20;3.47;;;13.10;99.90;;;;;;4952612;28;20502;-70
2024/02/15 03:36:42;;;;;;;3.63;2.87;;;13.10;99.90;;;;;;4948065;28;20490;-70
2024/02/15 03:39:09;;;;;;;5.80;3.37;;;13.20;99.90;;;;;;4950508;28;20462;-69
2024/02/15 03:41:35;;;;;;;14.20;5.20;;;13.10;99.90;;;;;;4952130;28;20483;-70
2024/02/15 03:44:02;;;;;;;6.10;4.37;;;13.30;99.90;;;;;;4945552;28;20931;-70
2024/02/15 03:46:29;;;;;;;5.17;3.57;;;13.40;99.90;;;;;;4939386;28;21062;-71
2024/02/15 03:48:56;;;;;;;5.03;3.20;;;13.20;99.90;;;;;;4946032;28;20463;-71
2024/02/15 03:51:24;;;;;;;3.73;2.77;;;13.10;99.90;;;;;;4952503;28;20455;-70
2024/02/15 03:53:52;;;;;;;5.93;4.63;;;13.00;99.90;;;;;;4955890;28;20467;-71
2024/02/15 03:56:18;;;;;;;5.80;3.10;;;13.10;99.90;;;;;;4958759;28;20522;-70
2024/02/15 03:58:45;;;;;;;10.33;3.00;;;13.10;99.90;;;;;;4954786;28;20459;-71
2024/02/15 04:01:15;;;;;;;3.13;2.53;;;13.10;99.90;;;;;;4955257;28;20486;-70
2024/02/15 04:03:41;;;;;;;15.50;4.50;;;13.20;99.90;;;;;;4949867;28;20471;-70
2024/02/15 04:06:09;;;;;;;7.23;3.73;;;13.10;99.90;;;;;;4951936;28;20489;-70
2024/02/15 04:08:38;;;;;;;7.80;3.00;;;13.00;99.90;;;;;;4957444;28;20499;-70
2024/02/15 04:11:07;;;;;;;4.20;3.80;;;13.00;99.90;;;;;;4958552;28;20546;-70
2024/02/15 04:13:34;;;;;;;4.17;2.63;;;13.00;99.90;;;;;;4950128;28;20648;-70
2024/02/15 04:16:00;;;;;;;4.53;4.00;;;13.10;99.90;;;;;;4952497;28;20585;-71
2024/02/15 04:18:29;;;;;;;4.03;3.00;;;13.30;99.90;;;;;;4950326;28;20506;-71
2024/02/15 04:20:56;;;;;;;3.30;2.70;;;13.10;99.90;;;;;;4954747;28;20483;-71
2024/02/15 04:23:23;;;;;;;7.70;3.03;;;13.10;99.90;;;;;;4958682;28;20459;-71
2024/02/15 04:25:52;;;;;;;8.23;4.60;;;12.90;99.90;;;;;;4960175;28;20464;-71
2024/02/15 04:28:19;;;;;;;3.23;2.73;;;12.90;99.90;;;;;;4954698;28;20577;-72
2024/02/15 04:30:48;;;;;;;8.20;2.60;;;12.90;99.90;;;;;;4963738;28;20466;-72
2024/02/15 04:33:15;;;;;;;9.80;4.33;;;12.90;99.90;;;;;;4960238;28;20561;-71
2024/02/15 04:35:42;;;;;;;4.30;3.10;;;12.90;99.90;;;;;;4959333;28;20464;-72
2024/02/15 04:38:09;;;;;;;7.60;3.20;;;12.90;99.90;;;;;;4961363;28;20495;-71
2024/02/15 04:40:38;;;;;;;4.60;3.00;;;12.90;99.90;;;;;;4953954;28;20498;-71
2024/02/15 04:43:06;;;;;;;3.63;2.70;;;13.00;99.90;;;;;;4962951;28;20472;-71
2024/02/15 04:45:33;;;;;;;7.10;4.10;;;13.00;99.90;;;;;;4957435;28;20907;-72
2024/02/15 04:48:01;;;;;;;2.50;2.30;;;13.00;99.90;;;;;;4955651;28;20490;-71
2024/02/15 04:50:30;;;;;;;9.40;2.30;;;13.00;99.90;;;;;;4953217;28;20482;-71
2024/02/15 04:52:57;;;;;;;11.70;3.40;;;13.00;99.90;;;;;;4959164;28;20455;-72
2024/02/15 04:55:26;;;;;;;8.50;2.90;;;13.10;99.90;;;;;;4959090;28;20459;-71
2024/02/15 04:57:54;;;;;;;5.37;3.37;;;13.00;99.90;;;;;;4955524;28;24160;-70
2024/02/15 05:00:25;;;;;;;7.70;3.00;;;13.00;99.90;;;;;;4952877;28;20924;-70
2024/02/15 05:02:52;;;;;;;3.13;2.20;;;13.00;99.90;;;;;;4964633;28;20548;-71
2024/02/15 05:05:19;;;;;;;3.23;2.80;;;13.10;99.90;;;;;;4963849;28;20471;-72
2024/02/15 05:07:48;;;;;;;5.17;2.73;;;13.10;99.90;;;;;;4963116;28;21078;-72
2024/02/15 05:10:16;;;;;;;3.70;2.87;;;13.10;99.90;;;;;;4963132;28;20466;-71
2024/02/15 05:12:43;;;;;;;3.50;2.70;;;13.10;99.90;;;;;;4957501;28;20594;-71
2024/02/15 05:15:11;;;;;;;3.83;3.10;;;13.00;99.90;;;;;;4959914;28;20554;-72
2024/02/15 05:17:41;;;;;;;3.70;2.10;;;13.00;99.90;;;;;;4955541;28;20483;-71
2024/02/15 05:20:11;;;;;;;7.83;3.30;;;13.00;99.90;;;;;;4957158;28;20458;-72
2024/02/15 05:22:39;;;;;;;9.00;3.07;;;13.20;99.90;;;;;;4957520;28;20847;-72
2024/02/15 05:25:07;;;;;;;3.00;1.90;;;13.10;99.90;;;;;;4958712;28;20467;-72
2024/02/15 05:27:35;;;;;;;2.37;2.03;;;13.10;99.90;;;;;;4956434;28;20514;-71
2024/02/15 05:30:06;;;;;;;7.50;3.07;;;13.00;99.90;;;;;;4951817;28;20489;-71
2024/02/15 05:32:33;;;;;;;13.80;2.87;;;13.20;99.90;;;;;;4961205;28;20558;-72
2024/02/15 05:35:01;;;;;;;6.13;3.47;;;13.20;99.90;;;;;;4961597;28;20946;-71
2024/02/15 05:37:28;;;;;;;4.53;2.60;;;13.10;99.90;;;;;;4959971;28;20687;-72
2024/02/15 05:39:55;;;;;;;3.60;2.50;;;13.10;99.90;;;;;;4955821;28;20474;-71
2024/02/15 05:42:22;;;;;;;3.50;2.20;;;13.10;99.90;;;;;;4957248;28;20495;-72
2024/02/15 05:44:50;;;;;;;3.70;3.40;;;13.30;99.90;;;;;;4959264;28;20459;-72
2024/02/15 05:47:16;;;;;;;1.97;1.77;;;13.40;99.90;;;;;;4954594;28;21304;-72
2024/02/15 05:49:43;;;;;;;1.97;1.77;;;13.50;99.90;;;;;;4960961;28;20980;-72
2024/02/15 05:52:12;;;;;;;3.30;2.17;;;13.60;99.90;;;;;;4961474;28;20550;-72
2024/02/15 05:54:39;;;;;;;4.20;2.27;;;13.40;99.90;;;;;;4960386;28;20463;-72
2024/02/15 05:57:06;;;;;;;5.03;2.37;;;13.50;99.90;;;;;;4961499;28;20570;-72
2024/02/15 05:59:32;;;;;;;3.73;2.60;;;13.50;99.90;;;;;;4960067;28;20474;-71
2024/02/15 06:01:59;;;;;;;3.23;2.10;;;13.50;99.90;;;;;;4958399;28;20487;-72
2024/02/15 06:04:26;;;;;;;2.70;2.20;;;13.50;99.90;;;;;;4958114;28;20459;-73
2024/02/15 06:06:58;;;;;;;3.60;2.20;;;13.40;99.90;;;;;;4956394;28;20494;-72
2024/02/15 06:09:27;;;;;;;2.77;1.80;;;13.40;99.90;;;;;;4963299;28;20938;-71
2024/02/15 06:11:55;;;;;;;3.63;1.80;;;13.40;99.90;;;;;;4956686;28;20462;-72
2024/02/15 06:14:22;;;;;;;5.70;2.80;;;13.50;99.90;;;;;;4960370;28;20487;-73
2024/02/15 06:16:48;;;;;;;2.00;1.83;;;13.40;99.90;;;;;;4955578;28;20514;-72
2024/02/15 06:19:15;;;;;;;1.30;0.97;;;13.50;99.90;;;;;;4962041;28;21574;-71
2024/02/15 06:21:43;;;;;;;2.60;2.40;;;13.40;99.90;;;;;;4960092;28;20946;-73
2024/02/15 06:24:10;;;;;;;5.33;2.23;;;13.40;99.90;;;;;;4955347;28;20578;-71
2024/02/15 06:26:38;;;;;;;4.27;1.50;;;13.30;99.90;;;;;;4962747;28;20810;-72
2024/02/15 06:40:21;;;;;;;4.80;1.70;;;13.40;99.90;;;;;;4960680;28;20537;-72
2024/02/15 06:42:49;;;;;;;3.70;1.87;;;13.40;99.90;;;;;;4957586;28;20483;-72
2024/02/15 06:45:16;;;;;;;14.50;2.90;;;13.40;99.90;;;;;;4961473;28;20467;-72
2024/02/15 06:47:43;;;;;;;3.67;2.93;;;13.40;99.90;;;;;;4961314;28;20483;-73
2024/02/15 06:50:11;;;;;;;2.13;1.63;;;13.40;99.90;;;;;;4957904;28;20531;-72
2024/02/15 06:52:38;;;;;;;2.30;1.43;;;13.30;99.90;;;;;;4957468;28;20566;-71
2024/02/15 06:55:08;;;;;;;5.90;2.20;;;13.30;99.90;;;;;;4958616;28;20463;-73
2024/02/15 06:57:35;;;;;;;2.70;1.90;;;13.40;99.90;;;;;;4959548;28;20479;-72
2024/02/15 07:00:07;;;;;;;3.83;1.83;;;13.30;99.90;;;;;;4956644;28;20462;-72
2024/02/15 07:02:34;;;;;;;6.60;2.00;;;13.40;99.90;;;;;;4960463;28;20494;-72
2024/02/15 07:05:02;;;;;;;2.83;2.10;;;13.20;99.90;;;;;;4960087;28;20467;-72
2024/02/15 07:07:29;;;;;;;2.30;2.00;;;13.30;99.90;;;;;;4958060;28;20586;-72
2024/02/15 07:09:56;;;;;;;2.90;1.97;;;13.40;99.90;;;;;;4957304;28;20463;-73
2024/02/15 07:12:23;;;;;;;3.53;2.10;;;13.40;99.90;;;;;;4957297;28;20459;-72
2024/02/15 07:14:50;;;;;;;5.63;1.77;;;13.30;99.90;;;;;;4958423;28;21038;-72
2024/02/15 07:17:18;;;;;;;3.30;2.10;;;13.40;99.90;;;;;;4960810;28;20478;-72
2024/02/15 07:19:45;;;;;;;9.07;1.83;;;13.50;99.90;;;;;;4963894;28;20547;-72
2024/02/15 07:22:12;;;;;;;15.10;3.53;;;13.40;99.90;;;;;;4959604;28;20486;-72
2024/02/15 07:24:39;;;;;;;1.50;1.40;;;13.40;99.90;;;;;;4957848;28;20467;-71
2024/02/15 07:27:06;;;;;;;5.63;2.00;;;13.40;99.90;;;;;;4959704;28;21001;-72
2024/02/15 07:29:33;;;;;;;4.00;2.37;;;13.20;99.90;;;;;;4961297;28;21253;-71
2024/02/15 07:32:04;;;;;;;3.10;2.40;;;13.20;99.90;;;;;;4959258;28;20475;-72
2024/02/15 07:34:32;;;;;;;2.23;2.03;;;13.20;99.90;;;;;;4960210;28;20463;-71
2024/02/15 07:36:59;;;;;;;2.10;1.80;;;13.30;99.90;;;;;;4957329;28;22957;-72
2024/02/15 07:39:27;;;;;;;2.80;2.00;;;13.30;99.90;;;;;;4961221;28;20463;-72
2024/02/15 07:41:56;;;;;;;3.03;2.20;;;13.20;99.90;;;;;;4955776;28;20559;-72
2024/02/15 07:44:23;;;;;;;15.40;3.70;;;13.00;99.90;;;;;;4957053;28;20873;-73
2024/02/15 07:46:50;;;;;;;10.40;2.43;;;12.80;99.90;;;;;;4957699;28;20483;-73
2024/02/15 07:49:17;;;;;;;7.20;3.17;;;12.80;99.90;;;;;;4954527;28;20491;-73
2024/02/15 07:51:47;;;;;;;8.00;3.07;;;12.70;99.90;;;;;;4958372;28;20468;-73
2024/02/15 07:54:14;;;;;;;4.80;2.73;;;12.60;99.90;;;;;;4961066;28;20468;-72
2024/02/15 07:56:41;;;;;;;6.77;3.00;;;12.60;99.90;;;;;;4964981;28;20483;-72
2024/02/15 07:59:07;;;;;;;6.73;2.10;;;12.50;99.90;;;;;;4966044;28;20517;-72
2024/02/15 08:01:34;;;;;;;4.77;2.67;;;12.50;99.90;;;;;;4961923;28;20482;-71
2024/02/15 08:04:01;;;;;;;4.10;2.53;;;12.60;99.90;;;;;;4963221;28;20470;-71
2024/02/15 08:06:28;;;;;;;2.40;1.83;;;12.50;99.90;;;;;;4955735;28;20483;-73
2024/02/15 08:08:56;;;;;;;4.70;2.23;;;12.50;99.90;;;;;;4965697;28;20554;-72
2024/02/15 08:11:26;;;;;;;3.20;3.00;;;12.60;99.90;;;;;;4964386;28;20483;-72
2024/02/15 08:13:54;;;;;;;4.70;1.97;;;12.70;99.90;;;;;;4961912;28;20470;-72
2024/02/15 08:16:23;;;;;;;3.73;3.30;;;12.90;99.90;;;;;;4962492;28;20513;-72
2024/02/15 08:18:52;;;;;;;3.07;1.93;;;13.00;99.90;;;;;;4965528;28;20455;-71
2024/02/15 08:21:25;;;;;;;1.77;1.43;;;13.10;99.90;;;;;;4959282;28;20471;-72
2024/02/15 08:23:52;;;;;;;1.80;1.40;;;13.10;99.90;;;;;;4962257;28;20962;-73
2024/02/15 08:26:20;;;;;;;2.80;1.87;;;13.20;99.90;;;;;;4960121;28;20473;-71
2024/02/15 08:28:47;;;;;;;2.13;1.87;;;13.20;99.90;;;;;;4959789;28;20474;-72
2024/02/15 08:31:15;;;;;;;4.07;2.13;;;13.30;99.90;;;;;;4963094;28;20470;-72
2024/02/15 08:33:43;;;;;;;9.17;2.23;;;13.30;99.90;;;;;;4963607;28;20577;-72
2024/02/15 08:36:10;;;;;;;2.63;1.90;;;13.30;99.90;;;;;;4955356;28;20487;-73
2024/02/15 08:38:37;;;;;;;5.63;1.90;;;13.40;99.90;;;;;;4961232;28;20602;-72
2024/02/15 08:41:06;;;;;;;2.90;2.70;;;13.40;99.90;;;;;;4962243;28;20844;-72
2024/02/15 10:55:04;;;;;;;3.73;1.63;;;15.30;99.90;;;;;;4951712;28;22870;-73
2024/02/15 10:57:33;;;;;;;10.10;1.50;;;15.50;99.90;;;;;;4955495;28;20493;-72
2024/02/15 11:00:10;;;;;;;2.70;1.60;;;15.40;99.90;;;;;;4963121;28;20479;-72
2024/02/15 11:02:41;;;;;;;1.97;1.20;;;15.30;99.90;;;;;;4960455;28;20553;-71
2024/02/15 11:05:10;;;;;;;2.53;1.50;;;15.40;99.90;;;;;;4957699;28;21000;-71
2024/02/15 11:07:37;;;;;;;1.50;1.13;;;15.30;99.90;;;;;;4957205;28;20537;-72
2024/02/15 11:10:08;;;;;;;7.67;1.40;;;15.30;99.90;;;;;;4956747;28;20482;-72
2024/02/15 11:12:35;;;;;;;1.60;1.43;;;15.20;99.90;;;;;;4961731;28;20474;-72
2024/02/15 11:15:03;;;;;;;2.13;1.00;;;15.00;99.90;;;;;;4959791;28;20471;-72
2024/02/15 11:17:53;;;;;;;1.93;1.53;;;15.00;99.90;;;;;;4959188;28;20490;-71
2024/02/15 11:20:55;;;;;;;2.97;1.27;;;15.20;99.90;;;;;;4957120;28;20466;-71
2024/02/15 11:23:28;;;;;;;1.37;1.23;;;15.00;99.90;;;;;;4878321;29;20513;-72
2024/02/15 11:25:59;;;;;;;1.40;1.10;;;15.20;99.90;;;;;;4878368;29;20475;-71
2024/02/15 11:28:49;;;;;;;1.90;1.53;;;15.20;99.90;;;;;;4866715;29;20949;-71
2024/02/15 11:31:56;;;;;;;2.50;2.20;;;15.20;99.90;;;;;;4871451;29;20466;-71
2024/02/15 11:34:48;;;;;;;2.80;1.20;;;15.30;99.90;;;;;;4869372;29;20480;-71
2024/02/15 11:37:52;;;;;;;4.50;1.73;;;15.30;99.90;;;;;;4868417;29;20493;-71
2024/02/15 11:40:22;;;;;;;2.83;2.07;;;15.40;99.90;;;;;;4875015;29;21011;-72
2024/02/15 11:42:52;;;;;;;4.23;1.60;;;15.20;99.90;;;;;;4873465;29;20566;-72
2024/02/15 11:45:20;;;;;;;1.40;1.30;;;15.20;99.90;;;;;;4868979;29;20458;-72
2024/02/15 11:47:52;;;;;;;1.37;1.10;;;15.40;99.90;;;;;;4871159;29;21036;-72
2024/02/15 11:50:20;;;;;;;1.40;1.30;;;15.30;99.90;;;;;;4870928;29;20467;-72
2024/02/15 11:52:48;;;;;;;2.53;1.30;;;15.30;99.90;;;;;;4872644;29;20643;-72
2024/02/15 11:55:19;;;;;;;1.50;1.10;;;15.50;99.90;;;;;;4938680;28;20459;-72
2024/02/15 11:58:02;;;;;;;2.03;1.40;;;15.60;99.90;;;;;;4951536;28;20514;-71
2024/02/15 12:19:45;;;;;;;2.20;1.37;;;15.40;99.90;;;;;;4923184;28;20578;-72
2024/02/15 12:22:12;;;;;;;1.10;0.97;;;15.60;99.90;;;;;;4955430;28;20475;-72
2024/02/15 12:24:39;;;;;;;3.30;1.47;;;15.80;99.90;;;;;;4954192;28;20467;-71
2024/02/15 12:27:06;;;;;;;6.07;1.90;;;15.90;99.90;;;;;;4950779;28;20498;-73
2024/02/15 12:29:35;;;;;;;6.00;1.57;;;16.10;99.90;;;;;;4951205;28;20550;-72
2024/02/15 12:32:03;;;;;;;1.30;1.17;;;16.40;99.90;;;;;;4948152;28;20476;-70
2024/02/15 12:34:30;;;;;;;3.17;1.40;;;16.30;99.90;;;;;;4950500;28;20495;-73
2024/02/15 12:37:06;;;;;;;1.87;1.20;;;16.30;99.90;;;;;;4952395;28;20483;-71
2024/02/15 12:39:34;;;;;;;4.20;1.37;;;16.40;99.90;;;;;;4953441;28;20463;-71
2024/02/15 12:42:01;;;;;;;19.87;1.60;;;16.50;99.90;;;;;;4958214;28;20471;-72
2024/02/15 12:44:33;;;;;;;1.50;0.90;;;16.50;99.90;;;;;;4958547;28;20606;-72
2024/02/15 12:47:03;;;;;;;3.00;1.30;;;16.70;99.90;;;;;;4958797;28;20491;-71
2024/02/15 12:49:32;;;;;;;5.80;1.70;;;16.70;99.90;;;;;;4965666;28;20467;-70
2024/02/15 12:52:33;;;;;;;2.17;1.30;;;16.80;99.90;;;;;;4962352;28;23675;-71
2024/02/15 12:55:15;;;;;;;1.40;1.17;;;16.80;99.90;;;;;;4959925;28;20554;-72
2024/02/15 12:57:44;;;;;;;1.93;1.80;;;16.50;99.90;;;;;;4957420;28;20486;-72
2024/02/15 13:00:17;;;;;;;2.33;1.00;;;16.50;99.90;;;;;;4957851;28;20475;-71
2024/02/15 13:02:47;;;;;;;7.80;1.93;;;16.50;99.90;;;;;;4955566;28;20497;-73
2024/02/15 13:05:14;;;;;;;5.67;1.20;;;16.60;99.90;;;;;;4959799;28;20467;-71
2024/02/15 13:07:41;;;;;;;2.33;1.23;;;16.80;99.90;;;;;;4955621;28;20483;-71
2024/02/15 13:10:09;;;;;;;1.90;1.60;;;16.80;99.90;;;;;;4955890;28;20459;-71
2024/02/15 13:12:36;;;;;;;2.60;1.80;;;16.80;99.90;;;;;;4956230;28;20461;-72
2024/02/15 13:15:04;;;;;;;6.33;1.47;;;17.00;99.90;;;;;;4957352;28;20459;-72
2024/02/15 13:17:31;;;;;;;1.67;1.23;;;17.30;99.90;;;;;;4957944;28;20487;-71
2024/02/15 13:20:04;;;;;;;6.80;2.13;;;17.40;99.90;;;;;;4958333;28;20472;-72
2024/02/15 13:22:32;;;;;;;2.33;1.47;;;17.60;99.90;;;;;;4955965;28;20526;-71
2024/02/15 13:24:58;;;;;;;2.33;1.83;;;17.90;99.90;;;;;;4962841;28;20976;-71
2024/02/15 13:27:25;;;;;;;2.23;1.50;;;18.20;99.90;;;;;;4955831;28;20495;-72
2024/02/15 13:29:53;;;;;;;3.30;1.10;;;18.30;99.90;;;;;;4953335;28;20577;-71
2024/02/15 13:32:21;;;;;;;4.70;1.30;;;18.30;99.90;;;;;;4961525;28;20467;-72
2024/02/15 13:34:51;;;;;;;1.83;1.30;;;18.30;99.90;;;;;;4957525;28;20513;-72
2024/02/15 13:37:21;;;;;;;1.97;1.30;;;18.20;99.90;;;;;;4953946;28;20490;-72
2024/02/15 13:39:48;;;;;;;2.67;1.43;;;18.20;99.90;;;;;;4958162;28;20499;-72
2024/02/15 13:42:18;;;;;;;3.83;1.00;;;18.20;99.90;;;;;;4952048;28;21474;-71
2024/02/15 13:44:45;;;;;;;1.90;1.27;;;18.10;99.90;;;;;;4957124;28;20582;-71
2024/02/15 13:47:12;;;;;;;2.23;0.90;;;18.00;99.90;;;;;;4959680;28;20485;-71
2024/02/15 13:49:39;;;;;;;4.40;1.50;;;18.10;99.90;;;;;;4954122;28;20463;-72
2024/02/15 13:52:07;;;;;;;5.07;1.67;;;18.00;99.90;;;;;;4954509;28;20467;-72
2024/02/15 13:54:35;;;;;;;3.40;1.10;;;17.90;99.90;;;;;;4959861;28;20455;-72
2024/02/15 13:57:02;;;;;;;0.97;0.70;;;17.80;99.90;;;;;;4961289;28;20865;-73
2024/02/15 13:59:29;;;;;;;1.80;1.40;;;17.70;99.90;;;;;;4958403;28;20784;-72
2024/02/15 14:01:56;;;;;;;5.43;1.70;;;17.70;99.90;;;;;;4955424;28;20467;-72
2024/02/15 14:04:23;;;;;;;4.70;2.20;;;17.80;99.90;;;;;;4955395;28;20935;-71
2024/02/15 14:06:50;;;;;;;3.50;2.00;;;17.80;99.90;;;;;;5034682;23;20522;-69
2024/02/15 14:09:17;;;;;;;4.40;1.67;;;17.90;99.90;;;;;;4971538;28;20467;-70
2024/02/15 14:11:45;;;;;;;2.00;1.27;;;17.80;99.90;;;;;;4968569;28;20563;-70
2024/02/15 14:14:11;;;;;;;1.03;0.87;;;17.70;99.90;;;;;;4979106;28;20453;-70
2024/02/15 14:16:39;;;;;;;1.53;1.30;;;17.70;99.90;;;;;;4974631;28;20505;-70
2024/02/15 14:19:06;;;;;;;3.00;1.20;;;17.50;99.90;;;;;;4976872;28;20484;-70
2024/02/15 14:21:38;;;;;;;4.63;1.43;;;17.50;99.90;;;;;;4976822;28;20469;-70
2024/02/15 14:24:08;;;;;;;2.03;1.33;;;17.50;99.90;;;;;;4979550;28;21004;-70
2024/02/15 14:26:35;;;;;;;6.20;0.90;;;17.50;99.90;;;;;;4975074;28;20988;-70
2024/02/15 14:29:03;;;;;;;3.00;1.43;;;17.50;99.90;;;;;;4977900;28;20451;-70
2024/02/15 14:34:17;;;;;;;7.83;2.90;;;17.40;99.90;;;;;;4977096;28;21540;-70
2024/02/15 14:36:45;;;;;;;4.13;1.30;;;17.40;99.90;;;;;;4977353;28;20567;-70
2024/02/15 14:39:13;;;;;;;5.90;1.50;;;17.30;99.90;;;;;;4981569;28;20470;-70
2024/02/15 14:41:40;;;;;;;2.03;1.30;;;17.00;99.90;;;;;;4975062;28;20489;-70
2024/02/15 14:44:08;;;;;;;1.97;1.60;;;17.20;99.90;;;;;;4977377;28;20462;-69
2024/02/15 14:46:35;;;;;;;1.80;1.60;;;17.30;99.90;;;;;;4973556;28;20462;-69
2024/02/15 14:49:04;;;;;;;1.73;1.30;;;17.20;99.90;;;;;;4971647;28;20563;-69
2024/02/15 14:51:32;;;;;;;1.90;1.27;;;17.10;99.90;;;;;;4979553;28;20466;-69
2024/02/15 14:53:59;;;;;;;2.70;1.20;;;17.20;99.90;;;;;;4975661;28;20498;-69
2024/02/15 14:56:26;;;;;;;2.17;1.30;;;17.10;99.90;;;;;;4975754;28;21098;-70
2024/02/15 14:58:52;;;;;;;2.33;1.40;;;17.10;99.90;;;;;;4980118;28;20469;-69
2024/02/15 15:01:21;;;;;;;2.47;1.10;;;17.00;99.90;;;;;;4970521;28;20491;-69
2024/02/15 15:03:56;;;;;;;3.00;0.90;;;17.00;99.90;;;;;;4975405;28;20474;-70
2024/02/15 15:14:36;;;;;;;2.30;1.20;;;17.60;99.90;;;;;;4973234;28;20485;-70
2024/02/15 15:17:05;;;;;;;1.50;1.37;;;17.50;99.90;;;;;;4978050;28;20492;-70
2024/02/15 15:19:31;;;;;;;1.20;1.10;;;17.40;99.90;;;;;;4976988;28;20565;-70
2024/02/15 15:21:59;;;;;;;2.33;1.10;;;17.30;99.90;;;;;;4972352;28;20497;-73
2024/02/15 15:24:26;;;;;;;1.57;1.13;;;17.50;99.90;;;;;;4975607;28;20934;-69
2024/02/15 15:26:53;;;;;;;2.67;1.30;;;17.50;99.90;;;;;;4975893;28;20493;-69
2024/02/15 15:29:20;;;;;;;2.57;1.07;;;17.40;99.90;;;;;;4971490;28;20486;-69
2024/02/15 15:31:46;;;;;;;3.00;1.50;;;17.40;99.90;;;;;;4977417;28;20531;-69
2024/02/15 15:34:16;;;;;;;4.43;1.40;;;17.40;99.90;;;;;;4979587;28;20486;-69
2024/02/15 15:36:43;;;;;;;1.60;1.50;;;17.50;99.90;;;;;;4978679;28;21039;-69
2024/02/15 15:39:10;;;;;;;9.37;1.70;;;17.50;99.90;;;;;;4981160;28;20470;-69
2024/02/15 15:41:38;;;;;;;1.40;1.20;;;17.60;99.90;;;;;;4978079;28;20545;-69
2024/02/15 15:44:05;;;;;;;17.30;2.33;;;17.00;99.90;;;;;;4971069;28;20461;-70
2024/02/15 15:46:33;;;;;;;5.40;1.40;;;16.80;99.90;;;;;;4973729;28;20461;-70